sensor_id;sensor_type;location;lat;lon;timestamp;temperature;humidity
48876;DHT22;34689;51.644;5.618;2022-12-18T00:00:44;-2.90;99.90
48876;DHT22;34689;51.644;5.618;2022-12-18T00:03:15;-2.90;99.90
48876;DHT22;34689;51.644;5.618;2022-12-18T00:05:51;-2.90;99.90
48876;DHT22;34689;51.644;5.618;2022-12-18T00:08:18;-2.90;99.90
48876;DHT22;34689;51.644;5.618;2022-12-18T00:10:44;-2.90;99.90
48876;DHT22;34689;51.644;5.618;2022-12-18T00:13:10;-2.90;99.90
48876;DHT22;34689;51.644;5.618;2022-12-18T00:15:37;-3.00;99.90
48876;DHT22;34689;51.644;5.618;2022-12-18T00:18:03;-3.00;99.90
48876;DHT22;34689;51.644;5.618;2022-12-18T00:20:30;-3.00;99.90
48876;DHT22;34689;51.644;5.618;2022-12-18T00:22:55;-3.10;99.90
48876;DHT22;34689;51.644;5.618;2022-12-18T00:25:21;-3.10;99.90
48876;DHT22;34689;51.644;5.618;2022-12-18T00:27:47;-3.20;99.90
48876;DHT22;34689;51.644;5.618;2022-12-18T00:30:12;-3.20;99.90
48876;DHT22;34689;51.644;5.618;2022-12-18T00:32:38;-3.10;99.90
48876;DHT22;34689;51.644;5.618;2022-12-18T00:35:05;-3.10;99.90
48876;DHT22;34689;51.644;5.618;2022-12-18T00:37:32;-3.10;99.90
48876;DHT22;34689;51.644;5.618;2022-12-18T00:39:58;-3.20;99.90
48876;DHT22;34689;51.644;5.618;2022-12-18T00:42:24;-3.20;99.90
48876;DHT22;34689;51.644;5.618;2022-12-18T00:45:08;-3.20;99.90
48876;DHT22;34689;51.644;5.618;2022-12-18T00:47:33;-3.20;99.90
48876;DHT22;34689;51.644;5.618;2022-12-18T00:49:59;-3.30;99.90
48876;DHT22;34689;51.644;5.618;2022-12-18T00:52:25;-3.20;99.90
48876;DHT22;34689;51.644;5.618;2022-12-18T00:54:50;-3.20;99.90
48876;DHT22;34689;51.644;5.618;2022-12-18T00:57:16;-3.30;99.90
48876;DHT22;34689;51.644;5.618;2022-12-18T00:59:42;-3.30;99.90
48876;DHT22;34689;51.644;5.618;2022-12-18T01:02:07;-3.20;99.90
48876;DHT22;34689;51.644;5.618;2022-12-18T01:04:33;-3.20;99.90
48876;DHT22;34689;51.644;5.618;2022-12-18T01:06:59;-3.20;99.90
48876;DHT22;34689;51.644;5.618;2022-12-18T01:09:24;-3.20;99.90
48876;DHT22;34689;51.644;5.618;2022-12-18T01:11:50;-3.30;99.90
48876;DHT22;34689;51.644;5.618;2022-12-18T01:14:16;-3.30;99.90
48876;DHT22;34689;51.644;5.618;2022-12-18T01:16:41;-3.30;99.90
48876;DHT22;34689;51.644;5.618;2022-12-18T01:19:07;-3.30;99.90
48876;DHT22;34689;51.644;5.618;2022-12-18T01:21:33;-3.30;99.90
48876;DHT22;34689;51.644;5.618;2022-12-18T01:23:58;-3.30;99.90
48876;DHT22;34689;51.644;5.618;2022-12-18T01:26:25;-3.30;99.90
48876;DHT22;34689;51.644;5.618;2022-12-18T01:28:51;-3.40;99.90
48876;DHT22;34689;51.644;5.618;2022-12-18T01:31:28;-3.40;99.90
48876;DHT22;34689;51.644;5.618;2022-12-18T01:33:54;-3.40;99.90
48876;DHT22;34689;51.644;5.618;2022-12-18T01:36:26;-3.40;99.90
48876;DHT22;34689;51.644;5.618;2022-12-18T01:38:52;-3.40;99.90
48876;DHT22;34689;51.644;5.618;2022-12-18T01:41:22;-3.40;99.90
48876;DHT22;34689;51.644;5.618;2022-12-18T01:43:49;-3.50;99.90
48876;DHT22;34689;51.644;5.618;2022-12-18T01:46:17;-3.50;99.90
48876;DHT22;34689;51.644;5.618;2022-12-18T01:48:47;-3.50;99.90
48876;DHT22;34689;51.644;5.618;2022-12-18T01:51:13;-3.50;99.90
48876;DHT22;34689;51.644;5.618;2022-12-18T01:53:41;-3.40;99.90
48876;DHT22;34689;51.644;5.618;2022-12-18T01:56:11;-3.50;99.90
48876;DHT22;34689;51.644;5.618;2022-12-18T02:01:12;-3.50;99.90
48876;DHT22;34689;51.644;5.618;2022-12-18T02:03:42;-3.50;99.90
48876;DHT22;34689;51.644;5.618;2022-12-18T02:06:16;-3.50;99.90
48876;DHT22;34689;51.644;5.618;2022-12-18T02:11:38;-3.50;99.90
48876;DHT22;34689;51.644;5.618;2022-12-18T02:17:04;-3.60;99.90
48876;DHT22;34689;51.644;5.618;2022-12-18T02:22:26;-3.60;99.90
48876;DHT22;34689;51.644;5.618;2022-12-18T02:27:44;-3.70;99.90
48876;DHT22;34689;51.644;5.618;2022-12-18T02:30:11;-3.70;99.90
48876;DHT22;34689;51.644;5.618;2022-12-18T02:32:44;-3.60;99.90
48876;DHT22;34689;51.644;5.618;2022-12-18T02:35:17;-3.70;99.90
48876;DHT22;34689;51.644;5.618;2022-12-18T02:37:47;-3.70;99.90
48876;DHT22;34689;51.644;5.618;2022-12-18T02:40:14;-3.70;99.90
48876;DHT22;34689;51.644;5.618;2022-12-18T02:42:41;-3.80;99.90
48876;DHT22;34689;51.644;5.618;2022-12-18T02:45:07;-3.80;99.90
48876;DHT22;34689;51.644;5.618;2022-12-18T02:47:36;-3.80;99.90
48876;DHT22;34689;51.644;5.618;2022-12-18T02:50:23;-3.80;99.90
48876;DHT22;34689;51.644;5.618;2022-12-18T02:58:20;-3.80;99.90
48876;DHT22;34689;51.644;5.618;2022-12-18T03:01:03;-3.80;99.90
48876;DHT22;34689;51.644;5.618;2022-12-18T03:03:58;-3.80;99.90
48876;DHT22;34689;51.644;5.618;2022-12-18T03:06:36;-3.80;99.90
48876;DHT22;34689;51.644;5.618;2022-12-18T03:09:08;-3.90;99.90
48876;DHT22;34689;51.644;5.618;2022-12-18T03:11:38;-3.90;99.90
48876;DHT22;34689;51.644;5.618;2022-12-18T03:14:25;-3.90;99.90
48876;DHT22;34689;51.644;5.618;2022-12-18T03:16:54;-3.90;99.90
48876;DHT22;34689;51.644;5.618;2022-12-18T03:19:24;-3.90;99.90
48876;DHT22;34689;51.644;5.618;2022-12-18T03:21:55;-3.90;99.90
48876;DHT22;34689;51.644;5.618;2022-12-18T03:24:22;-3.90;99.90
48876;DHT22;34689;51.644;5.618;2022-12-18T03:26:53;-3.90;99.90
48876;DHT22;34689;51.644;5.618;2022-12-18T03:29:25;-3.90;99.90
48876;DHT22;34689;51.644;5.618;2022-12-18T03:32:01;-3.90;99.90
48876;DHT22;34689;51.644;5.618;2022-12-18T03:34:34;-3.90;99.90
48876;DHT22;34689;51.644;5.618;2022-12-18T03:37:01;-3.90;99.90
48876;DHT22;34689;51.644;5.618;2022-12-18T03:39:27;-3.90;99.90
48876;DHT22;34689;51.644;5.618;2022-12-18T03:41:58;-3.80;99.90
48876;DHT22;34689;51.644;5.618;2022-12-18T03:49:40;-3.80;99.90
48876;DHT22;34689;51.644;5.618;2022-12-18T03:54:45;-3.90;99.90
48876;DHT22;34689;51.644;5.618;2022-12-18T03:57:18;-3.90;99.90
48876;DHT22;34689;51.644;5.618;2022-12-18T03:59:46;-3.90;99.90
48876;DHT22;34689;51.644;5.618;2022-12-18T04:02:14;-3.90;99.90
48876;DHT22;34689;51.644;5.618;2022-12-18T04:04:41;-3.90;99.90
48876;DHT22;34689;51.644;5.618;2022-12-18T04:07:07;-3.90;99.90
48876;DHT22;34689;51.644;5.618;2022-12-18T04:09:34;-3.90;99.90
48876;DHT22;34689;51.644;5.618;2022-12-18T04:12:01;-3.90;99.90
48876;DHT22;34689;51.644;5.618;2022-12-18T04:14:27;-3.90;99.90
48876;DHT22;34689;51.644;5.618;2022-12-18T04:16:53;-3.90;99.90
48876;DHT22;34689;51.644;5.618;2022-12-18T04:19:18;-3.90;99.90
48876;DHT22;34689;51.644;5.618;2022-12-18T04:21:44;-3.90;99.90
48876;DHT22;34689;51.644;5.618;2022-12-18T04:24:10;-3.90;99.90
48876;DHT22;34689;51.644;5.618;2022-12-18T04:26:35;-4.00;99.90
48876;DHT22;34689;51.644;5.618;2022-12-18T04:29:01;-4.00;99.90
48876;DHT22;34689;51.644;5.618;2022-12-18T04:31:27;-4.00;99.90
48876;DHT22;34689;51.644;5.618;2022-12-18T04:33:53;-3.90;99.90
48876;DHT22;34689;51.644;5.618;2022-12-18T04:36:19;-4.00;99.90
48876;DHT22;34689;51.644;5.618;2022-12-18T04:38:44;-4.00;99.90
48876;DHT22;34689;51.644;5.618;2022-12-18T04:41:10;-4.00;99.90
48876;DHT22;34689;51.644;5.618;2022-12-18T04:43:35;-4.00;99.90
48876;DHT22;34689;51.644;5.618;2022-12-18T04:46:08;-4.00;99.90
48876;DHT22;34689;51.644;5.618;2022-12-18T04:48:34;-4.00;99.90
48876;DHT22;34689;51.644;5.618;2022-12-18T04:51:00;-4.00;99.90
48876;DHT22;34689;51.644;5.618;2022-12-18T04:53:27;-4.00;99.90
48876;DHT22;34689;51.644;5.618;2022-12-18T04:56:05;-4.00;99.90
48876;DHT22;34689;51.644;5.618;2022-12-18T04:58:31;-4.00;99.90
48876;DHT22;34689;51.644;5.618;2022-12-18T05:00:57;-4.00;99.90
48876;DHT22;34689;51.644;5.618;2022-12-18T05:03:23;-4.00;99.90
48876;DHT22;34689;51.644;5.618;2022-12-18T05:05:52;-4.00;99.90
48876;DHT22;34689;51.644;5.618;2022-12-18T05:08:18;-4.00;99.90
48876;DHT22;34689;51.644;5.618;2022-12-18T05:10:44;-4.00;99.90
48876;DHT22;34689;51.644;5.618;2022-12-18T05:13:10;-4.00;99.90
48876;DHT22;34689;51.644;5.618;2022-12-18T05:15:36;-4.00;99.90
48876;DHT22;34689;51.644;5.618;2022-12-18T05:18:02;-4.10;99.90
48876;DHT22;34689;51.644;5.618;2022-12-18T05:20:28;-4.10;99.90
48876;DHT22;34689;51.644;5.618;2022-12-18T05:22:54;-4.10;99.90
48876;DHT22;34689;51.644;5.618;2022-12-18T05:25:20;-4.10;99.90
48876;DHT22;34689;51.644;5.618;2022-12-18T05:27:47;-4.10;99.90
48876;DHT22;34689;51.644;5.618;2022-12-18T05:30:13;-4.20;99.90
48876;DHT22;34689;51.644;5.618;2022-12-18T05:32:39;-4.20;99.90
48876;DHT22;34689;51.644;5.618;2022-12-18T05:35:07;-4.20;99.90
48876;DHT22;34689;51.644;5.618;2022-12-18T05:37:33;-4.20;99.90
48876;DHT22;34689;51.644;5.618;2022-12-18T05:39:59;-4.20;99.90
48876;DHT22;34689;51.644;5.618;2022-12-18T05:42:24;-4.20;99.90
48876;DHT22;34689;51.644;5.618;2022-12-18T05:44:50;-4.20;99.90
48876;DHT22;34689;51.644;5.618;2022-12-18T05:47:16;-4.20;99.90
48876;DHT22;34689;51.644;5.618;2022-12-18T05:49:41;-4.20;99.90
48876;DHT22;34689;51.644;5.618;2022-12-18T05:52:08;-4.20;99.90
48876;DHT22;34689;51.644;5.618;2022-12-18T05:54:34;-4.10;99.90
48876;DHT22;34689;51.644;5.618;2022-12-18T05:56:59;-4.10;99.90
48876;DHT22;34689;51.644;5.618;2022-12-18T05:59:25;-4.10;99.90
48876;DHT22;34689;51.644;5.618;2022-12-18T06:01:51;-4.10;99.90
48876;DHT22;34689;51.644;5.618;2022-12-18T06:04:16;-4.10;99.90
48876;DHT22;34689;51.644;5.618;2022-12-18T06:06:42;-4.10;99.90
48876;DHT22;34689;51.644;5.618;2022-12-18T06:09:08;-4.10;99.90
48876;DHT22;34689;51.644;5.618;2022-12-18T06:11:36;-4.10;99.90
48876;DHT22;34689;51.644;5.618;2022-12-18T06:14:03;-4.10;99.90
48876;DHT22;34689;51.644;5.618;2022-12-18T06:16:29;-4.10;99.90
48876;DHT22;34689;51.644;5.618;2022-12-18T06:18:57;-4.10;99.90
48876;DHT22;34689;51.644;5.618;2022-12-18T06:21:23;-4.10;99.90
48876;DHT22;34689;51.644;5.618;2022-12-18T06:23:48;-4.10;99.90
48876;DHT22;34689;51.644;5.618;2022-12-18T06:26:14;-4.10;99.90
48876;DHT22;34689;51.644;5.618;2022-12-18T06:28:40;-4.10;99.90
48876;DHT22;34689;51.644;5.618;2022-12-18T06:31:06;-4.10;99.90
48876;DHT22;34689;51.644;5.618;2022-12-18T06:33:32;-4.10;99.90
48876;DHT22;34689;51.644;5.618;2022-12-18T06:36:16;-4.10;99.90
48876;DHT22;34689;51.644;5.618;2022-12-18T06:38:43;-4.10;99.90
48876;DHT22;34689;51.644;5.618;2022-12-18T06:41:20;-4.10;99.90
48876;DHT22;34689;51.644;5.618;2022-12-18T06:43:46;-4.00;99.90
48876;DHT22;34689;51.644;5.618;2022-12-18T06:46:12;-4.10;99.90
48876;DHT22;34689;51.644;5.618;2022-12-18T06:48:38;-4.10;99.90
48876;DHT22;34689;51.644;5.618;2022-12-18T06:51:04;-4.10;99.90
48876;DHT22;34689;51.644;5.618;2022-12-18T06:53:31;-4.10;99.90
48876;DHT22;34689;51.644;5.618;2022-12-18T06:56:04;-4.10;99.90
48876;DHT22;34689;51.644;5.618;2022-12-18T06:58:30;-4.10;99.90
48876;DHT22;34689;51.644;5.618;2022-12-18T07:01:04;-4.10;99.90
48876;DHT22;34689;51.644;5.618;2022-12-18T07:03:30;-4.20;99.90
48876;DHT22;34689;51.644;5.618;2022-12-18T07:05:56;-4.20;99.90
48876;DHT22;34689;51.644;5.618;2022-12-18T07:08:22;-4.20;99.90
48876;DHT22;34689;51.644;5.618;2022-12-18T07:10:48;-4.10;99.90
48876;DHT22;34689;51.644;5.618;2022-12-18T07:13:16;-4.10;99.90
48876;DHT22;34689;51.644;5.618;2022-12-18T07:15:43;-4.10;99.90
48876;DHT22;34689;51.644;5.618;2022-12-18T07:18:09;-4.10;99.90
48876;DHT22;34689;51.644;5.618;2022-12-18T07:20:35;-4.10;99.90
48876;DHT22;34689;51.644;5.618;2022-12-18T07:23:05;-4.10;99.90
48876;DHT22;34689;51.644;5.618;2022-12-18T07:25:35;-4.10;99.90
48876;DHT22;34689;51.644;5.618;2022-12-18T07:28:01;-4.10;99.90
48876;DHT22;34689;51.644;5.618;2022-12-18T07:30:26;-4.10;99.90
48876;DHT22;34689;51.644;5.618;2022-12-18T07:32:52;-4.10;99.90
48876;DHT22;34689;51.644;5.618;2022-12-18T07:35:18;-4.10;99.90
48876;DHT22;34689;51.644;5.618;2022-12-18T07:37:44;-4.10;99.90
48876;DHT22;34689;51.644;5.618;2022-12-18T07:40:10;-4.10;99.90
48876;DHT22;34689;51.644;5.618;2022-12-18T07:42:36;-4.10;99.90
48876;DHT22;34689;51.644;5.618;2022-12-18T07:45:03;-4.10;99.90
48876;DHT22;34689;51.644;5.618;2022-12-18T07:47:35;-4.10;99.90
48876;DHT22;34689;51.644;5.618;2022-12-18T07:50:02;-4.10;99.90
48876;DHT22;34689;51.644;5.618;2022-12-18T07:52:28;-4.10;99.90
48876;DHT22;34689;51.644;5.618;2022-12-18T07:54:54;-4.00;99.90
48876;DHT22;34689;51.644;5.618;2022-12-18T07:57:19;-4.00;99.90
48876;DHT22;34689;51.644;5.618;2022-12-18T07:59:45;-4.00;99.90
48876;DHT22;34689;51.644;5.618;2022-12-18T08:02:11;-4.00;99.90
48876;DHT22;34689;51.644;5.618;2022-12-18T08:04:36;-3.90;99.90
48876;DHT22;34689;51.644;5.618;2022-12-18T08:07:02;-3.90;99.90
48876;DHT22;34689;51.644;5.618;2022-12-18T08:09:28;-3.90;99.90
48876;DHT22;34689;51.644;5.618;2022-12-18T08:11:54;-3.90;99.90
48876;DHT22;34689;51.644;5.618;2022-12-18T08:14:19;-3.90;99.90
48876;DHT22;34689;51.644;5.618;2022-12-18T08:16:45;-3.80;99.90
48876;DHT22;34689;51.644;5.618;2022-12-18T08:19:11;-3.80;99.90
48876;DHT22;34689;51.644;5.618;2022-12-18T08:21:37;-3.80;99.90
48876;DHT22;34689;51.644;5.618;2022-12-18T08:24:02;-3.80;99.90
48876;DHT22;34689;51.644;5.618;2022-12-18T08:26:30;-3.70;99.90
48876;DHT22;34689;51.644;5.618;2022-12-18T08:28:57;-3.70;99.90
48876;DHT22;34689;51.644;5.618;2022-12-18T08:31:24;-3.70;99.90
48876;DHT22;34689;51.644;5.618;2022-12-18T08:33:51;-3.60;99.90
48876;DHT22;34689;51.644;5.618;2022-12-18T08:36:18;-3.60;99.90
48876;DHT22;34689;51.644;5.618;2022-12-18T08:38:44;-3.60;99.90
48876;DHT22;34689;51.644;5.618;2022-12-18T08:41:12;-3.60;99.90
48876;DHT22;34689;51.644;5.618;2022-12-18T08:43:38;-3.50;99.90
48876;DHT22;34689;51.644;5.618;2022-12-18T08:46:24;-3.50;99.90
48876;DHT22;34689;51.644;5.618;2022-12-18T08:48:51;-3.50;99.90
48876;DHT22;34689;51.644;5.618;2022-12-18T08:51:17;-3.40;99.90
48876;DHT22;34689;51.644;5.618;2022-12-18T08:53:43;-3.40;99.90
48876;DHT22;34689;51.644;5.618;2022-12-18T08:56:10;-3.40;99.90
48876;DHT22;34689;51.644;5.618;2022-12-18T08:58:36;-3.30;99.90
48876;DHT22;34689;51.644;5.618;2022-12-18T09:01:07;-3.30;99.90
48876;DHT22;34689;51.644;5.618;2022-12-18T09:03:37;-3.30;99.90
48876;DHT22;34689;51.644;5.618;2022-12-18T09:06:02;-3.20;99.90
48876;DHT22;34689;51.644;5.618;2022-12-18T09:08:29;-3.20;99.90
48876;DHT22;34689;51.644;5.618;2022-12-18T09:10:54;-3.10;99.90
48876;DHT22;34689;51.644;5.618;2022-12-18T09:13:21;-3.10;99.90
48876;DHT22;34689;51.644;5.618;2022-12-18T09:15:49;-3.00;99.90
48876;DHT22;34689;51.644;5.618;2022-12-18T09:18:17;-3.00;99.90
48876;DHT22;34689;51.644;5.618;2022-12-18T09:20:43;-2.90;99.90
48876;DHT22;34689;51.644;5.618;2022-12-18T09:23:08;-2.90;99.90
48876;DHT22;34689;51.644;5.618;2022-12-18T09:25:35;-2.90;99.90
48876;DHT22;34689;51.644;5.618;2022-12-18T09:28:12;-2.80;99.90
48876;DHT22;34689;51.644;5.618;2022-12-18T09:30:42;-2.80;99.90
48876;DHT22;34689;51.644;5.618;2022-12-18T09:33:09;-2.70;99.90
48876;DHT22;34689;51.644;5.618;2022-12-18T09:35:38;-2.70;99.90
48876;DHT22;34689;51.644;5.618;2022-12-18T09:38:04;-2.60;99.90
48876;DHT22;34689;51.644;5.618;2022-12-18T09:40:35;-2.60;99.90
48876;DHT22;34689;51.644;5.618;2022-12-18T09:43:04;-2.60;99.90
48876;DHT22;34689;51.644;5.618;2022-12-18T09:45:56;-2.60;99.90
48876;DHT22;34689;51.644;5.618;2022-12-18T09:48:25;-2.50;99.90
48876;DHT22;34689;51.644;5.618;2022-12-18T09:50:55;-2.50;99.90
48876;DHT22;34689;51.644;5.618;2022-12-18T09:53:27;-2.50;99.90
48876;DHT22;34689;51.644;5.618;2022-12-18T09:55:54;-2.40;99.90
48876;DHT22;34689;51.644;5.618;2022-12-18T10:00:47;-2.30;99.90
48876;DHT22;34689;51.644;5.618;2022-12-18T10:03:14;-2.30;99.90
48876;DHT22;34689;51.644;5.618;2022-12-18T10:25:23;-2.00;99.90
48876;DHT22;34689;51.644;5.618;2022-12-18T10:27:55;-2.00;99.90
48876;DHT22;34689;51.644;5.618;2022-12-18T10:30:23;-2.00;99.90
48876;DHT22;34689;51.644;5.618;2022-12-18T10:32:50;-2.00;99.90
48876;DHT22;34689;51.644;5.618;2022-12-18T10:35:21;-1.90;99.90
48876;DHT22;34689;51.644;5.618;2022-12-18T10:40:26;-1.90;99.90
48876;DHT22;34689;51.644;5.618;2022-12-18T10:43:25;-1.90;99.90
48876;DHT22;34689;51.644;5.618;2022-12-18T10:46:11;-1.90;99.90
48876;DHT22;34689;51.644;5.618;2022-12-18T10:51:30;-1.80;99.90
48876;DHT22;34689;51.644;5.618;2022-12-18T10:54:03;-1.70;99.90
48876;DHT22;34689;51.644;5.618;2022-12-18T10:56:30;-1.70;99.90
48876;DHT22;34689;51.644;5.618;2022-12-18T10:59:05;-1.60;99.90
48876;DHT22;34689;51.644;5.618;2022-12-18T11:01:55;-1.60;99.90
48876;DHT22;34689;51.644;5.618;2022-12-18T11:04:25;-1.60;99.90
48876;DHT22;34689;51.644;5.618;2022-12-18T11:06:59;-1.60;99.90
48876;DHT22;34689;51.644;5.618;2022-12-18T11:09:31;-1.50;99.90
48876;DHT22;34689;51.644;5.618;2022-12-18T11:12:16;-1.50;99.90
48876;DHT22;34689;51.644;5.618;2022-12-18T11:14:46;-1.50;99.90
48876;DHT22;34689;51.644;5.618;2022-12-18T11:17:19;-1.50;99.90
48876;DHT22;34689;51.644;5.618;2022-12-18T11:20:02;-1.40;99.90
48876;DHT22;34689;51.644;5.618;2022-12-18T11:22:33;-1.40;99.90
48876;DHT22;34689;51.644;5.618;2022-12-18T11:27:39;-1.40;99.90
48876;DHT22;34689;51.644;5.618;2022-12-18T11:32:48;-1.40;99.90
48876;DHT22;34689;51.644;5.618;2022-12-18T11:35:21;-1.30;99.90
48876;DHT22;34689;51.644;5.618;2022-12-18T11:37:54;-1.30;99.90
48876;DHT22;34689;51.644;5.618;2022-12-18T11:40:35;-1.30;99.90
48876;DHT22;34689;51.644;5.618;2022-12-18T11:43:13;-1.30;99.90
48876;DHT22;34689;51.644;5.618;2022-12-18T11:46:43;-1.20;99.90
48876;DHT22;34689;51.644;5.618;2022-12-18T11:49:21;-1.20;99.90
48876;DHT22;34689;51.644;5.618;2022-12-18T11:51:55;-1.20;99.90
48876;DHT22;34689;51.644;5.618;2022-12-18T11:54:23;-1.10;99.90
48876;DHT22;34689;51.644;5.618;2022-12-18T11:57:10;-1.10;99.90
48876;DHT22;34689;51.644;5.618;2022-12-18T12:13:50;-1.00;99.90
48876;DHT22;34689;51.644;5.618;2022-12-18T12:21:42;-0.90;99.90
48876;DHT22;34689;51.644;5.618;2022-12-18T12:27:22;-0.90;99.90
48876;DHT22;34689;51.644;5.618;2022-12-18T12:30:07;-0.90;99.90
48876;DHT22;34689;51.644;5.618;2022-12-18T12:40:28;-0.80;99.90
48876;DHT22;34689;51.644;5.618;2022-12-18T12:42:59;-0.80;99.90
48876;DHT22;34689;51.644;5.618;2022-12-18T12:45:46;-0.80;99.90
48876;DHT22;34689;51.644;5.618;2022-12-18T12:48:35;-0.80;99.90
48876;DHT22;34689;51.644;5.618;2022-12-18T12:51:08;-0.80;99.90
48876;DHT22;34689;51.644;5.618;2022-12-18T12:53:37;-0.70;99.90
48876;DHT22;34689;51.644;5.618;2022-12-18T12:56:05;-0.70;99.90
48876;DHT22;34689;51.644;5.618;2022-12-18T12:58:34;-0.70;99.90
48876;DHT22;34689;51.644;5.618;2022-12-18T13:09:09;-0.70;99.90
48876;DHT22;34689;51.644;5.618;2022-12-18T13:14:29;-0.60;99.90
48876;DHT22;34689;51.644;5.618;2022-12-18T13:20:10;-0.60;99.90
48876;DHT22;34689;51.644;5.618;2022-12-18T13:22:42;-0.60;99.90
48876;DHT22;34689;51.644;5.618;2022-12-18T13:25:31;-0.60;99.90
48876;DHT22;34689;51.644;5.618;2022-12-18T13:28:04;-0.60;99.90
48876;DHT22;34689;51.644;5.618;2022-12-18T13:36:02;-0.60;99.90
48876;DHT22;34689;51.644;5.618;2022-12-18T13:38:36;-0.50;99.90
48876;DHT22;34689;51.644;5.618;2022-12-18T13:43:49;-0.50;99.90
48876;DHT22;34689;51.644;5.618;2022-12-18T13:46:41;-0.50;99.90
48876;DHT22;34689;51.644;5.618;2022-12-18T13:51:44;-0.50;99.90
48876;DHT22;34689;51.644;5.618;2022-12-18T13:54:37;-0.50;99.90
48876;DHT22;34689;51.644;5.618;2022-12-18T13:57:05;-0.50;99.90
48876;DHT22;34689;51.644;5.618;2022-12-18T13:59:49;-0.50;99.90
48876;DHT22;34689;51.644;5.618;2022-12-18T14:02:22;-0.50;99.90
48876;DHT22;34689;51.644;5.618;2022-12-18T14:04:49;-0.50;99.90
48876;DHT22;34689;51.644;5.618;2022-12-18T14:07:19;-0.40;99.90
48876;DHT22;34689;51.644;5.618;2022-12-18T14:09:51;-0.40;99.90
48876;DHT22;34689;51.644;5.618;2022-12-18T14:12:29;-0.40;99.90
48876;DHT22;34689;51.644;5.618;2022-12-18T14:20:27;-0.40;99.90
48876;DHT22;34689;51.644;5.618;2022-12-18T14:22:54;-0.40;99.90
48876;DHT22;34689;51.644;5.618;2022-12-18T14:27:50;-0.40;99.90
48876;DHT22;34689;51.644;5.618;2022-12-18T14:30:23;-0.40;99.90
48876;DHT22;34689;51.644;5.618;2022-12-18T14:33:12;-0.40;99.90
48876;DHT22;34689;51.644;5.618;2022-12-18T14:35:43;-0.40;99.90
48876;DHT22;34689;51.644;5.618;2022-12-18T14:38:23;-0.40;99.90
48876;DHT22;34689;51.644;5.618;2022-12-18T14:43:26;-0.40;99.90
48876;DHT22;34689;51.644;5.618;2022-12-18T14:45:53;-0.30;99.90
48876;DHT22;34689;51.644;5.618;2022-12-18T14:51:04;-0.30;99.90
48876;DHT22;34689;51.644;5.618;2022-12-18T14:53:39;-0.30;99.90
48876;DHT22;34689;51.644;5.618;2022-12-18T14:56:19;-0.30;99.90
48876;DHT22;34689;51.644;5.618;2022-12-18T14:59:31;-0.30;99.90
48876;DHT22;34689;51.644;5.618;2022-12-18T15:04:40;-0.30;99.90
48876;DHT22;34689;51.644;5.618;2022-12-18T15:09:43;-0.30;99.90
48876;DHT22;34689;51.644;5.618;2022-12-18T15:12:35;-0.30;99.90
48876;DHT22;34689;51.644;5.618;2022-12-18T15:15:02;-0.30;99.90
48876;DHT22;34689;51.644;5.618;2022-12-18T15:17:28;-0.30;99.90
48876;DHT22;34689;51.644;5.618;2022-12-18T15:20:01;-0.20;99.90
48876;DHT22;34689;51.644;5.618;2022-12-18T15:22:29;-0.30;99.90
48876;DHT22;34689;51.644;5.618;2022-12-18T15:24:56;-0.30;99.90
48876;DHT22;34689;51.644;5.618;2022-12-18T15:27:35;-0.20;99.90
48876;DHT22;34689;51.644;5.618;2022-12-18T15:32:39;-0.20;99.90
48876;DHT22;34689;51.644;5.618;2022-12-18T15:37:37;-0.30;99.90
48876;DHT22;34689;51.644;5.618;2022-12-18T15:40:03;-0.30;99.90
48876;DHT22;34689;51.644;5.618;2022-12-18T15:42:29;-0.20;99.90
48876;DHT22;34689;51.644;5.618;2022-12-18T15:45:14;-0.30;99.90
48876;DHT22;34689;51.644;5.618;2022-12-18T15:47:40;-0.30;99.90
48876;DHT22;34689;51.644;5.618;2022-12-18T15:50:09;-0.20;99.90
48876;DHT22;34689;51.644;5.618;2022-12-18T15:52:43;-0.20;99.90
48876;DHT22;34689;51.644;5.618;2022-12-18T15:55:15;-0.20;99.90
48876;DHT22;34689;51.644;5.618;2022-12-18T15:58:00;-0.20;99.90
48876;DHT22;34689;51.644;5.618;2022-12-18T16:00:26;-0.20;99.90
48876;DHT22;34689;51.644;5.618;2022-12-18T16:02:51;-0.20;99.90
48876;DHT22;34689;51.644;5.618;2022-12-18T16:05:19;-0.20;99.90
48876;DHT22;34689;51.644;5.618;2022-12-18T16:07:45;-0.20;99.90
48876;DHT22;34689;51.644;5.618;2022-12-18T16:10:13;-0.20;99.90
48876;DHT22;34689;51.644;5.618;2022-12-18T16:12:39;-0.20;99.90
48876;DHT22;34689;51.644;5.618;2022-12-18T16:15:06;-0.20;99.90
48876;DHT22;34689;51.644;5.618;2022-12-18T16:17:32;-0.20;99.90
48876;DHT22;34689;51.644;5.618;2022-12-18T16:19:58;-0.20;99.90
48876;DHT22;34689;51.644;5.618;2022-12-18T16:22:26;-0.20;99.90
48876;DHT22;34689;51.644;5.618;2022-12-18T16:24:53;-0.20;99.90
48876;DHT22;34689;51.644;5.618;2022-12-18T16:27:20;-0.20;99.90
48876;DHT22;34689;51.644;5.618;2022-12-18T16:29:45;-0.20;99.90
48876;DHT22;34689;51.644;5.618;2022-12-18T16:32:17;-0.20;99.90
48876;DHT22;34689;51.644;5.618;2022-12-18T16:34:43;-0.20;99.90
48876;DHT22;34689;51.644;5.618;2022-12-18T16:37:11;-0.20;99.90
48876;DHT22;34689;51.644;5.618;2022-12-18T16:39:38;-0.20;99.90
48876;DHT22;34689;51.644;5.618;2022-12-18T16:42:09;-0.20;99.90
48876;DHT22;34689;51.644;5.618;2022-12-18T16:44:35;-0.10;99.90
48876;DHT22;34689;51.644;5.618;2022-12-18T16:47:01;-0.20;99.90
48876;DHT22;34689;51.644;5.618;2022-12-18T16:49:27;-0.20;99.90
48876;DHT22;34689;51.644;5.618;2022-12-18T16:51:53;-0.20;99.90
48876;DHT22;34689;51.644;5.618;2022-12-18T16:54:19;-0.10;99.90
48876;DHT22;34689;51.644;5.618;2022-12-18T16:56:45;-0.10;99.90
48876;DHT22;34689;51.644;5.618;2022-12-18T16:59:14;-0.10;99.90
48876;DHT22;34689;51.644;5.618;2022-12-18T17:01:40;-0.20;99.90
48876;DHT22;34689;51.644;5.618;2022-12-18T17:04:07;-0.10;99.90
48876;DHT22;34689;51.644;5.618;2022-12-18T17:06:34;-0.10;99.90
48876;DHT22;34689;51.644;5.618;2022-12-18T17:09:06;-0.10;99.90
48876;DHT22;34689;51.644;5.618;2022-12-18T17:11:33;-0.10;99.90
48876;DHT22;34689;51.644;5.618;2022-12-18T17:14:09;-0.10;99.90
48876;DHT22;34689;51.644;5.618;2022-12-18T17:16:34;-0.10;99.90
48876;DHT22;34689;51.644;5.618;2022-12-18T17:19:00;-0.10;99.90
48876;DHT22;34689;51.644;5.618;2022-12-18T17:21:26;-0.10;99.90
48876;DHT22;34689;51.644;5.618;2022-12-18T17:23:52;-0.10;99.90
48876;DHT22;34689;51.644;5.618;2022-12-18T17:26:17;-0.10;99.90
48876;DHT22;34689;51.644;5.618;2022-12-18T17:28:43;-0.10;99.90
48876;DHT22;34689;51.644;5.618;2022-12-18T17:31:15;-0.10;99.90
48876;DHT22;34689;51.644;5.618;2022-12-18T17:33:41;-0.10;99.90
48876;DHT22;34689;51.644;5.618;2022-12-18T17:36:07;-0.10;99.90
48876;DHT22;34689;51.644;5.618;2022-12-18T17:38:34;-0.10;99.90
48876;DHT22;34689;51.644;5.618;2022-12-18T17:41:05;-0.10;99.90
48876;DHT22;34689;51.644;5.618;2022-12-18T17:43:32;-0.10;99.90
48876;DHT22;34689;51.644;5.618;2022-12-18T17:46:04;-0.10;99.90
48876;DHT22;34689;51.644;5.618;2022-12-18T17:48:30;-0.10;99.90
48876;DHT22;34689;51.644;5.618;2022-12-18T17:51:05;-0.10;99.90
48876;DHT22;34689;51.644;5.618;2022-12-18T17:53:31;0.00;99.90
48876;DHT22;34689;51.644;5.618;2022-12-18T17:55:58;0.00;99.90
48876;DHT22;34689;51.644;5.618;2022-12-18T17:58:26;0.00;99.90
48876;DHT22;34689;51.644;5.618;2022-12-18T18:00:52;0.00;99.90
48876;DHT22;34689;51.644;5.618;2022-12-18T18:03:17;0.00;99.90